createdAt,value
2022-12-17T00:02:14.485Z,24.00
2022-12-17T00:05:00.369Z,27.17
2022-12-17T00:07:46.375Z,20.47
2022-12-17T00:10:33.967Z,24.90
2022-12-17T00:13:34.636Z,18.50
2022-12-17T00:16:20.809Z,20.50
2022-12-17T00:19:12.365Z,25.20
2022-12-17T00:21:58.016Z,25.57
2022-12-17T00:24:56.399Z,24.17
2022-12-17T00:27:43.512Z,25.30
2022-12-17T00:30:31.851Z,27.47
2022-12-17T00:33:17.822Z,28.23
2022-12-17T00:36:09.977Z,30.33
2022-12-17T00:38:56.059Z,24.77
2022-12-17T00:41:42.490Z,25.17
2022-12-17T00:44:30.763Z,28.67
2022-12-17T00:47:16.830Z,26.57
2022-12-17T00:50:02.773Z,26.97
2022-12-17T00:52:48.926Z,24.57
2022-12-17T00:55:35.173Z,23.67
2022-12-17T00:58:21.537Z,26.77
2022-12-17T01:01:08.644Z,26.57
2022-12-17T01:03:54.746Z,24.90
2022-12-17T01:06:42.657Z,21.27
2022-12-17T01:09:28.790Z,25.40
2022-12-17T01:12:14.830Z,23.30
2022-12-17T01:15:00.720Z,27.13
2022-12-17T01:17:53.067Z,20.97
2022-12-17T01:20:41.907Z,22.43
2022-12-17T01:23:28.309Z,21.27
2022-12-17T01:26:15.419Z,19.73
2022-12-17T01:29:01.768Z,27.33
2022-12-17T01:31:48.284Z,26.30
2022-12-17T01:34:37.175Z,22.37
2022-12-17T01:37:19.607Z,27.30
2022-12-17T01:40:05.602Z,22.00
2022-12-17T01:42:57.592Z,22.40
2022-12-17T01:45:45.409Z,28.10
2022-12-17T01:48:35.714Z,25.67
2022-12-17T01:51:23.749Z,24.10
2022-12-17T01:54:12.840Z,28.27
2022-12-17T01:57:01.217Z,24.17
2022-12-17T02:00:04.000Z,26.47
2022-12-17T02:03:01.326Z,23.63
2022-12-17T02:05:59.247Z,26.50
2022-12-17T02:08:57.200Z,25.30
2022-12-17T02:11:53.442Z,27.73
2022-12-17T02:14:47.920Z,20.13
2022-12-17T02:17:40.204Z,23.33
2022-12-17T02:20:41.678Z,19.90
2022-12-17T02:23:42.830Z,17.90
2022-12-17T02:26:35.827Z,19.37
2022-12-17T02:29:28.010Z,23.60
2022-12-17T02:32:14.107Z,18.70
2022-12-17T02:35:05.177Z,16.83
2022-12-17T02:37:53.455Z,16.43
2022-12-17T02:40:42.499Z,21.07
2022-12-17T02:43:30.065Z,22.43
2022-12-17T02:46:26.169Z,21.00
2022-12-17T02:49:12.421Z,19.77
2022-12-17T02:51:59.283Z,17.93
2022-12-17T02:54:48.688Z,17.17
2022-12-17T02:57:34.568Z,18.70
2022-12-17T03:00:20.311Z,15.10
2022-12-17T03:03:07.384Z,22.17
2022-12-17T03:05:53.308Z,19.07
2022-12-17T03:08:39.252Z,18.57
2022-12-17T03:11:25.016Z,20.40
2022-12-17T03:14:11.056Z,18.13
2022-12-17T03:16:57.911Z,18.60
2022-12-17T03:19:44.956Z,20.57
2022-12-17T03:22:30.993Z,17.97
2022-12-17T03:25:16.911Z,16.37
2022-12-17T03:28:02.832Z,16.63
2022-12-17T03:30:49.475Z,14.37
2022-12-17T03:33:35.803Z,15.50
2022-12-17T03:36:23.747Z,14.43
2022-12-17T03:39:09.850Z,12.40
2022-12-17T03:41:55.755Z,15.93
2022-12-17T03:44:41.583Z,16.60
2022-12-17T03:47:27.650Z,18.53
2022-12-17T03:50:13.516Z,14.97
2022-12-17T03:53:00.714Z,17.53
2022-12-17T03:55:45.874Z,15.40
2022-12-17T03:58:31.767Z,17.93
2022-12-17T04:01:17.909Z,17.17
2022-12-17T04:04:03.779Z,13.53
2022-12-17T04:06:49.672Z,16.37
2022-12-17T04:09:37.160Z,15.33
2022-12-17T04:12:22.930Z,16.47
2022-12-17T04:15:08.832Z,13.53
2022-12-17T04:17:54.864Z,15.43
2022-12-17T04:20:40.819Z,18.77
2022-12-17T04:23:26.798Z,14.87
2022-12-17T04:26:14.137Z,17.37
2022-12-17T04:29:00.129Z,17.43
2022-12-17T04:31:46.040Z,16.03
2022-12-17T04:34:31.867Z,13.80
2022-12-17T04:37:17.860Z,14.87
2022-12-17T04:40:03.838Z,14.43
2022-12-17T04:42:50.884Z,16.80
2022-12-17T04:45:36.745Z,15.17
2022-12-17T04:48:24.776Z,16.13
2022-12-17T04:51:10.945Z,15.30
2022-12-17T04:53:53.299Z,15.27
2022-12-17T04:56:39.556Z,13.90
2022-12-17T04:59:26.479Z,13.57
2022-12-17T05:02:12.552Z,15.23
2022-12-17T05:04:58.710Z,16.77
2022-12-17T05:07:44.722Z,16.07
2022-12-17T05:10:30.879Z,15.50
2022-12-17T05:13:17.085Z,17.60
2022-12-17T05:16:06.960Z,17.33
2022-12-17T05:18:53.083Z,15.00
2022-12-17T05:21:47.492Z,15.93
2022-12-17T05:24:33.216Z,16.57
2022-12-17T05:27:19.004Z,17.73
2022-12-17T05:30:04.966Z,16.37
2022-12-17T05:32:51.976Z,15.10
2022-12-17T05:35:38.046Z,15.10
2022-12-17T05:38:24.820Z,16.97
2022-12-17T05:41:11.311Z,15.57
2022-12-17T05:43:57.145Z,14.93
2022-12-17T05:46:43.251Z,15.67
2022-12-17T05:49:30.229Z,14.23
2022-12-17T05:52:16.115Z,13.57
2022-12-17T05:55:01.929Z,13.27
2022-12-17T05:57:50.469Z,13.13
2022-12-17T06:00:39.036Z,15.90
2022-12-17T06:03:25.098Z,16.03
2022-12-17T06:06:16.217Z,15.03
2022-12-17T06:09:02.004Z,14.17
2022-12-17T06:11:47.192Z,15.53
2022-12-17T06:14:33.115Z,15.73
2022-12-17T06:17:19.086Z,18.63
2022-12-17T06:20:04.999Z,20.33
2022-12-17T06:22:51.961Z,16.90
2022-12-17T06:25:38.000Z,16.40
2022-12-17T06:28:23.819Z,16.53
2022-12-17T06:31:21.528Z,23.13
2022-12-17T06:34:07.446Z,16.53
2022-12-17T06:36:53.339Z,17.37
2022-12-17T06:39:40.450Z,21.80
2022-12-17T06:42:26.578Z,22.27
2022-12-17T06:45:12.543Z,19.90
2022-12-17T06:47:58.456Z,18.33
2022-12-17T06:50:44.386Z,18.83
2022-12-17T06:53:30.240Z,16.93
2022-12-17T06:56:18.457Z,13.37
2022-12-17T06:59:04.304Z,16.23
2022-12-17T07:01:50.310Z,15.43
2022-12-17T07:04:36.407Z,15.97
2022-12-17T07:07:22.148Z,15.17
2022-12-17T07:10:12.288Z,16.57
2022-12-17T07:13:01.510Z,15.70
2022-12-17T07:15:47.448Z,17.40
2022-12-17T07:18:33.336Z,15.27
2022-12-17T07:21:19.330Z,20.33
2022-12-17T07:24:05.268Z,18.40
2022-12-17T07:26:51.056Z,21.20
2022-12-17T07:29:38.101Z,21.43
2022-12-17T07:32:24.295Z,17.13
2022-12-17T07:35:10.144Z,21.23
2022-12-17T07:37:56.058Z,15.17
2022-12-17T07:40:41.983Z,16.53
2022-12-17T07:43:31.769Z,17.20
2022-12-17T07:46:18.885Z,16.10
2022-12-17T07:49:17.219Z,17.17
2022-12-17T07:52:04.915Z,17.43
2022-12-17T07:54:50.616Z,16.70
2022-12-17T07:57:44.866Z,18.70
2022-12-17T08:00:49.400Z,16.30
2022-12-17T08:03:37.053Z,16.67
2022-12-17T08:06:23.938Z,17.73
2022-12-17T08:09:09.967Z,15.67
2022-12-17T08:11:55.873Z,19.90
2022-12-17T08:14:38.076Z,19.23
2022-12-17T08:17:24.003Z,15.13
2022-12-17T08:20:11.353Z,15.67
2022-12-17T08:22:53.652Z,14.20
2022-12-17T08:25:44.885Z,16.30
2022-12-17T08:31:37.349Z,16.93
2022-12-17T08:34:23.723Z,16.30
2022-12-17T08:37:11.256Z,16.03
2022-12-17T08:39:57.097Z,17.30
2022-12-17T08:42:43.013Z,17.50
2022-12-17T08:45:29.401Z,18.80
2022-12-17T08:48:22.377Z,19.50
2022-12-17T08:51:08.415Z,19.93
2022-12-17T08:53:56.105Z,16.37
2022-12-17T08:56:41.815Z,18.00
2022-12-17T08:59:27.759Z,22.33
2022-12-17T09:02:13.783Z,15.90
2022-12-17T09:04:59.686Z,20.43
2022-12-17T09:07:45.672Z,21.23
2022-12-17T09:10:32.640Z,21.17
2022-12-17T09:13:20.976Z,19.30
2022-12-17T09:16:13.550Z,22.13
2022-12-17T09:19:00.038Z,14.57
2022-12-17T09:21:46.970Z,16.13
2022-12-17T09:24:32.842Z,15.57
2022-12-17T09:27:20.030Z,17.73
2022-12-17T09:30:05.916Z,14.67
2022-12-17T09:32:51.791Z,19.10
2022-12-17T09:35:38.012Z,18.50
2022-12-17T09:38:30.130Z,17.63
2022-12-17T09:41:21.618Z,16.13
2022-12-17T09:44:18.013Z,17.50
2022-12-17T09:47:13.412Z,17.30
2022-12-17T09:49:59.800Z,13.20
2022-12-17T09:52:52.022Z,15.50
2022-12-17T09:55:42.096Z,14.27
2022-12-17T09:58:38.498Z,11.43
2022-12-17T10:01:34.663Z,11.20
2022-12-17T10:04:21.743Z,10.57
2022-12-17T10:07:09.141Z,12.60
2022-12-17T10:09:55.915Z,9.60
2022-12-17T10:12:43.232Z,9.17
2022-12-17T10:15:33.849Z,11.23
2022-12-17T10:18:26.905Z,9.87
2022-12-17T10:21:17.365Z,9.67
2022-12-17T10:24:03.258Z,9.83
2022-12-17T10:26:51.502Z,11.87
2022-12-17T10:29:43.868Z,17.33
2022-12-17T10:32:41.728Z,16.87
2022-12-17T10:35:37.506Z,13.90
2022-12-17T10:38:31.491Z,15.67
2022-12-17T10:41:17.483Z,17.60
2022-12-17T10:44:03.527Z,18.30
2022-12-17T10:46:51.930Z,16.10
2022-12-17T10:49:40.536Z,18.43
2022-12-17T10:52:42.412Z,15.87
2022-12-17T10:55:42.170Z,14.87
2022-12-17T10:58:33.471Z,17.47
2022-12-17T11:01:21.158Z,16.00
2022-12-17T11:04:10.871Z,15.47
2022-12-17T11:06:59.767Z,18.70
2022-12-17T11:10:08.759Z,18.53
2022-12-17T11:13:01.159Z,18.40
2022-12-17T11:15:53.306Z,17.83
2022-12-17T11:18:44.679Z,14.53
2022-12-17T11:21:35.052Z,19.70
2022-12-17T11:24:22.904Z,17.00
2022-12-17T11:27:15.279Z,16.17
2022-12-17T11:30:01.125Z,17.70
2022-12-17T11:33:17.121Z,16.07
2022-12-17T11:36:11.104Z,16.70
2022-12-17T11:39:00.539Z,16.43
2022-12-17T11:42:08.084Z,15.57
2022-12-17T11:45:12.287Z,17.03
2022-12-17T11:48:08.813Z,20.37
2022-12-17T11:51:04.380Z,16.77
2022-12-17T11:54:06.282Z,19.27
2022-12-17T11:56:57.247Z,21.87
2022-12-17T11:59:53.280Z,22.53
2022-12-17T12:03:03.799Z,23.00
2022-12-17T12:06:02.598Z,20.00
2022-12-17T12:08:51.924Z,22.97
2022-12-17T12:11:46.804Z,25.83
2022-12-17T12:14:47.916Z,20.70
2022-12-17T12:17:57.988Z,23.00
2022-12-17T12:21:02.804Z,23.63
2022-12-17T12:24:03.853Z,23.50
2022-12-17T12:26:58.715Z,24.30
2022-12-17T12:29:52.358Z,26.77
2022-12-17T12:32:47.274Z,25.10
2022-12-17T12:35:40.256Z,24.00
2022-12-17T12:38:33.139Z,22.73
2022-12-17T12:41:32.983Z,25.23
2022-12-17T12:44:26.033Z,31.30
2022-12-17T12:47:17.636Z,29.00
2022-12-17T12:50:11.017Z,26.17
2022-12-17T12:52:58.327Z,31.23
2022-12-17T12:55:56.925Z,31.53
2022-12-17T12:58:45.953Z,34.23
2022-12-17T13:01:31.935Z,39.03
2022-12-17T13:04:16.779Z,31.63
2022-12-17T13:06:50.745Z,30.33
2022-12-17T13:09:49.324Z,35.97
2022-12-17T13:12:35.682Z,32.40
2022-12-17T13:15:30.256Z,38.13
2022-12-17T13:18:17.870Z,32.53
2022-12-17T13:21:01.037Z,33.57
2022-12-17T13:23:35.991Z,37.07
2022-12-17T13:26:23.294Z,30.70
2022-12-17T13:29:12.718Z,27.93
2022-12-17T13:32:03.992Z,25.83
2022-12-17T13:34:48.109Z,26.63
2022-12-17T13:37:39.796Z,25.73
2022-12-17T13:40:26.496Z,28.27
2022-12-17T13:42:56.259Z,27.07
2022-12-17T13:45:27.384Z,28.57
2022-12-17T13:48:00.266Z,23.00
2022-12-17T13:50:34.810Z,26.80
2022-12-17T13:53:12.026Z,29.23
2022-12-17T13:55:40.551Z,28.10
2022-12-17T13:58:24.533Z,36.03
2022-12-17T14:00:53.043Z,32.27
2022-12-17T14:03:43.138Z,30.53
2022-12-17T14:06:13.356Z,30.70
2022-12-17T14:08:42.188Z,31.63
2022-12-17T14:11:30.064Z,34.67
2022-12-17T14:14:03.534Z,30.33
2022-12-17T14:16:32.297Z,32.00
2022-12-17T14:19:01.394Z,31.87
2022-12-17T14:21:31.134Z,32.37
2022-12-17T14:24:00.003Z,37.47
2022-12-17T14:26:28.481Z,31.10
2022-12-17T14:28:58.977Z,33.23
2022-12-17T14:31:29.721Z,33.27
2022-12-17T14:34:07.476Z,28.13
2022-12-17T14:36:38.067Z,32.60
2022-12-17T14:39:18.169Z,32.40
2022-12-17T14:42:04.609Z,29.50
2022-12-17T14:44:34.935Z,26.33
2022-12-17T14:47:16.925Z,30.27
2022-12-17T14:49:56.979Z,30.17
2022-12-17T14:52:37.567Z,29.23
2022-12-17T14:55:39.344Z,30.00
2022-12-17T14:58:22.240Z,23.97
2022-12-17T15:00:55.612Z,27.47
2022-12-17T15:03:28.657Z,30.33
2022-12-17T15:06:00.799Z,39.13
2022-12-17T15:08:33.417Z,33.47
2022-12-17T15:11:02.230Z,39.47
2022-12-17T15:13:30.909Z,33.90
2022-12-17T15:16:00.817Z,38.73
2022-12-17T15:18:29.345Z,32.93
2022-12-17T15:20:57.723Z,36.83
2022-12-17T15:23:26.643Z,31.47
2022-12-17T15:25:56.001Z,35.13
2022-12-17T15:28:28.385Z,35.60
2022-12-17T15:30:56.892Z,32.20
2022-12-17T15:33:26.691Z,26.87
2022-12-17T15:35:58.075Z,33.77
2022-12-17T15:38:26.462Z,32.10
2022-12-17T15:40:55.230Z,39.60
2022-12-17T15:43:22.613Z,32.60
2022-12-17T15:45:53.075Z,36.30
2022-12-17T15:48:23.687Z,33.73
2022-12-17T15:50:53.385Z,37.53
2022-12-17T15:53:21.747Z,34.53
2022-12-17T15:56:01.483Z,39.07
2022-12-17T15:58:29.929Z,34.57
2022-12-17T16:00:58.564Z,33.83
2022-12-17T16:03:26.998Z,32.53
2022-12-17T16:05:56.715Z,36.33
2022-12-17T16:08:25.085Z,30.40
2022-12-17T16:10:53.432Z,31.43
2022-12-17T16:13:21.740Z,32.23
2022-12-17T16:16:03.398Z,32.80
2022-12-17T16:18:32.824Z,29.17
2022-12-17T16:21:05.738Z,32.87
2022-12-17T16:23:34.802Z,26.47
2022-12-17T16:26:06.373Z,29.20
2022-12-17T16:28:36.794Z,32.77
2022-12-17T16:31:08.454Z,33.53
2022-12-17T16:33:38.801Z,33.23
2022-12-17T16:36:12.548Z,32.50
2022-12-17T16:38:45.555Z,36.77
2022-12-17T16:41:14.982Z,38.50
2022-12-17T16:43:43.853Z,31.97
2022-12-17T16:46:28.284Z,39.63
2022-12-17T16:48:59.139Z,30.60
2022-12-17T16:51:29.918Z,30.03
2022-12-17T16:53:59.005Z,38.57
2022-12-17T16:56:31.110Z,37.80
2022-12-17T16:59:05.456Z,36.10
2022-12-17T17:01:33.932Z,37.67
2022-12-17T17:04:02.551Z,39.93
2022-12-17T17:06:34.103Z,41.20
2022-12-17T17:09:05.365Z,34.03
2022-12-17T17:11:33.797Z,35.73
2022-12-17T17:14:02.189Z,38.00
2022-12-17T17:16:31.341Z,39.57
2022-12-17T17:18:59.732Z,33.80
2022-12-17T17:21:32.439Z,36.90
2022-12-17T17:24:02.539Z,28.60
2022-12-17T17:26:33.576Z,33.73
2022-12-17T17:29:02.444Z,38.07
2022-12-17T17:34:19.300Z,29.43
2022-12-17T17:36:49.042Z,30.97
2022-12-17T17:39:17.380Z,31.33
2022-12-17T17:41:45.770Z,35.10
2022-12-17T17:44:15.114Z,37.93
2022-12-17T17:46:43.721Z,29.83
2022-12-17T17:49:12.660Z,29.47
2022-12-17T17:54:33.609Z,25.50
2022-12-17T17:57:02.404Z,34.13
2022-12-17T17:59:33.742Z,36.60
2022-12-17T18:02:03.735Z,37.40
2022-12-17T18:04:32.927Z,38.87
2022-12-17T18:07:25.125Z,32.43
2022-12-17T18:09:51.012Z,29.40
2022-12-17T18:12:37.036Z,34.40
2022-12-17T18:15:15.789Z,32.37
2022-12-17T18:17:47.630Z,27.87
2022-12-17T18:20:16.827Z,27.97
2022-12-17T18:22:46.653Z,33.33
2022-12-17T18:25:17.780Z,32.03
2022-12-17T18:27:46.399Z,32.67
2022-12-17T18:30:16.326Z,33.57
2022-12-17T18:32:44.940Z,29.87
2022-12-17T18:35:13.519Z,32.03
2022-12-17T18:37:42.222Z,32.80
2022-12-17T18:40:11.978Z,29.63
2022-12-17T18:42:59.022Z,34.10
2022-12-17T18:45:27.362Z,30.77
2022-12-17T18:47:55.752Z,31.23
2022-12-17T18:50:24.103Z,27.67
2022-12-17T18:52:52.529Z,34.77
2022-12-17T18:55:20.881Z,35.23
2022-12-17T18:57:50.659Z,29.17
2022-12-17T19:00:19.699Z,30.70
2022-12-17T19:02:48.175Z,33.80
2022-12-17T19:05:16.979Z,31.90
2022-12-17T19:07:45.366Z,32.20
2022-12-17T19:10:13.816Z,37.67
2022-12-17T19:12:42.221Z,36.10
2022-12-17T19:15:12.339Z,37.27
2022-12-17T19:17:40.739Z,43.07
2022-12-17T19:20:10.958Z,36.97
2022-12-17T19:22:39.330Z,34.30
2022-12-17T19:25:08.193Z,38.50
2022-12-17T19:27:36.570Z,35.50
2022-12-17T19:30:06.333Z,39.53
2022-12-17T19:32:36.055Z,35.43
2022-12-17T19:35:04.788Z,35.70
2022-12-17T19:37:33.125Z,36.37
2022-12-17T19:40:01.496Z,36.63
2022-12-17T19:42:36.792Z,37.23
2022-12-17T19:45:06.808Z,37.63
2022-12-17T19:47:36.534Z,37.90
2022-12-17T19:50:06.038Z,37.20
2022-12-17T19:52:34.386Z,29.43
2022-12-17T19:55:03.031Z,32.77
2022-12-17T19:57:31.756Z,39.33
2022-12-17T20:00:00.150Z,35.80
2022-12-17T20:02:32.857Z,39.07
2022-12-17T20:05:03.004Z,37.87
2022-12-17T20:07:31.373Z,34.37
2022-12-17T20:09:59.723Z,37.37
2022-12-17T20:12:28.023Z,41.50
2022-12-17T20:14:56.807Z,31.07
2022-12-17T20:17:26.112Z,34.67
2022-12-17T20:19:56.386Z,35.30
2022-12-17T20:22:27.772Z,38.60
2022-12-17T20:24:56.085Z,37.17
2022-12-17T20:27:24.528Z,41.67
2022-12-17T20:29:52.892Z,33.00
2022-12-17T20:32:21.461Z,35.33
2022-12-17T20:34:50.393Z,39.20
2022-12-17T20:37:21.881Z,37.07
2022-12-17T20:39:51.738Z,39.50
2022-12-17T20:42:22.251Z,41.57
2022-12-17T20:44:53.555Z,40.17
2022-12-17T20:47:23.937Z,46.60
2022-12-17T20:49:52.261Z,42.10
2022-12-17T20:52:20.794Z,42.67
2022-12-17T20:54:49.499Z,42.20
2022-12-17T20:57:20.993Z,42.93
2022-12-17T20:59:49.475Z,45.90
2022-12-17T21:02:17.954Z,36.03
2022-12-17T21:04:46.670Z,37.07
2022-12-17T21:07:15.048Z,41.20
2022-12-17T21:09:43.426Z,41.77
2022-12-17T21:12:13.541Z,48.20
2022-12-17T21:14:43.321Z,42.53
2022-12-17T21:17:11.951Z,52.57
2022-12-17T21:19:42.415Z,45.43
2022-12-17T21:22:10.769Z,46.97
2022-12-17T21:24:39.702Z,45.13
2022-12-17T21:27:14.272Z,43.47
2022-12-17T21:29:44.521Z,46.83
2022-12-17T21:32:12.908Z,44.20
2022-12-17T21:34:41.450Z,44.53
2022-12-17T21:37:11.290Z,38.93
2022-12-17T21:39:39.821Z,44.80
2022-12-17T21:42:25.948Z,42.93
2022-12-17T21:44:55.660Z,38.07
2022-12-17T21:47:24.555Z,36.47
2022-12-17T21:49:52.982Z,37.60
2022-12-17T21:52:21.423Z,40.33
2022-12-17T21:54:49.801Z,41.33
2022-12-17T21:57:18.196Z,40.97
2022-12-17T21:59:46.589Z,34.60
2022-12-17T22:02:16.478Z,41.00
2022-12-17T22:04:45.141Z,40.33
2022-12-17T22:07:17.203Z,40.33
2022-12-17T22:09:50.879Z,39.43
2022-12-17T22:12:56.094Z,38.47
2022-12-17T22:15:25.774Z,40.90
2022-12-17T22:17:58.525Z,39.87
2022-12-17T22:20:27.852Z,45.20
2022-12-17T22:22:56.303Z,38.83
2022-12-17T22:25:24.929Z,44.47
2022-12-17T22:27:53.508Z,40.97
2022-12-17T22:30:39.586Z,39.00
2022-12-17T22:33:30.083Z,44.50
2022-12-17T22:37:01.836Z,35.30
2022-12-17T22:43:48.354Z,37.10
2022-12-17T22:44:37.656Z,37.13
2022-12-17T22:44:53.321Z,32.10
2022-12-17T22:47:22.422Z,34.77
2022-12-17T22:49:52.212Z,36.87
2022-12-17T22:52:21.483Z,35.40
2022-12-17T22:54:50.157Z,37.53
2022-12-17T22:57:36.364Z,41.87
2022-12-17T23:00:14.114Z,40.90
2022-12-17T23:02:42.521Z,36.53
2022-12-17T23:05:12.376Z,46.73
2022-12-17T23:07:40.747Z,39.10
2022-12-17T23:10:10.134Z,38.80
2022-12-17T23:12:54.240Z,36.30
2022-12-17T23:15:28.557Z,40.07
2022-12-17T23:17:59.713Z,38.73
2022-12-17T23:20:32.116Z,37.80
2022-12-17T23:23:01.092Z,42.03
2022-12-17T23:25:30.379Z,37.73
2022-12-17T23:27:58.835Z,42.10
2022-12-17T23:30:27.616Z,41.10
2022-12-17T23:32:55.994Z,39.17
2022-12-17T23:35:24.446Z,37.73
2022-12-17T23:37:54.166Z,39.83
2022-12-17T23:40:23.132Z,37.80
2022-12-17T23:42:51.497Z,39.63
2022-12-17T23:45:19.983Z,32.37
2022-12-17T23:47:48.324Z,37.17
2022-12-17T23:50:16.736Z,35.73
2022-12-17T23:52:45.068Z,35.67
2022-12-17T23:55:14.790Z,36.40
2022-12-17T23:57:43.145Z,39.20
